Terminal Aerodrome Forecast
Issued by NWS Sterling, VA

Current Version | Previous Version | Graphics & Text | Print | Product List | Glossary On
Versions: 1 2 3 4 5 6 7 8 9 10 11 12 13 14 15 16 17 18 19 20 21 22
522
FTUS41 KLWX 201720
TAFDCA
TAF
KDCA 201720Z 2018/2118 26009KT P6SM FEW150 FEW250
     FM202200 22006KT P6SM FEW200 FEW250
     FM211200 20009KT P6SM FEW200 FEW250 WS020/22035KT
     FM211300 21009KT P6SM FEW200 FEW250=

USA.gov is the U.S. government's official web portal to all federal, state and local government web resources and services.